Time;durP1;ratioP1;P1;durP2;ratioP2;P2;SDS_P1;SDS_P2;PMS_P1;PMS_P2;Temp;Humidity;BMP_temperature;BMP_pressure;BME280_temperature;BME280_humidity;BME280_pressure;Samples;Min_cycle;Max_cycle;Signal;HPM_P1;HPM_P2
2021/04/19 00:01:20;;;;;;;4.35;1.83;;;7.10;99.90;;;;;;5006158;28;20026;-76
2021/04/19 00:03:46;;;;;;;6.30;2.22;;;7.10;99.90;;;;;;4988756;28;20057;-76
2021/04/19 00:06:12;;;;;;;9.70;3.25;;;7.10;99.90;;;;;;5004750;28;20042;-76
2021/04/19 00:08:37;;;;;;;7.28;3.33;;;7.10;99.90;;;;;;5024204;28;20041;-76
2021/04/19 00:11:03;;;;;;;6.32;2.83;;;7.10;99.90;;;;;;5025799;28;20030;-76
2021/04/19 00:13:29;;;;;;;10.32;3.67;;;7.00;99.90;;;;;;5008311;28;20025;-76
2021/04/19 00:15:54;;;;;;;7.20;2.80;;;7.00;99.90;;;;;;5008168;28;20092;-76
2021/04/19 00:18:20;;;;;;;10.75;3.80;;;7.00;99.90;;;;;;5025562;28;20132;-76
2021/04/19 00:20:46;;;;;;;7.40;3.17;;;6.90;99.90;;;;;;5025554;28;20029;-76
2021/04/19 00:23:12;;;;;;;7.38;3.10;;;6.90;99.90;;;;;;5025780;28;20548;-76
2021/04/19 00:25:37;;;;;;;7.35;3.25;;;6.90;99.90;;;;;;5025518;28;20022;-76
2021/04/19 00:28:04;;;;;;;8.10;3.58;;;6.90;99.90;;;;;;5007953;28;20492;-76
2021/04/19 00:30:29;;;;;;;8.52;3.70;;;6.80;99.90;;;;;;5025564;28;20022;-76
2021/04/19 00:32:55;;;;;;;6.80;2.70;;;6.80;99.90;;;;;;5025431;28;20064;-76
2021/04/19 00:35:21;;;;;;;7.50;3.60;;;6.80;99.90;;;;;;5025408;28;20053;-76
2021/04/19 00:37:47;;;;;;;6.22;2.95;;;6.80;99.90;;;;;;5025266;28;20489;-76
2021/04/19 00:40:16;;;;;;;7.57;3.45;;;6.70;99.90;;;;;;5007740;28;20033;-75
2021/04/19 00:42:44;;;;;;;6.45;2.80;;;6.70;99.90;;;;;;5007763;28;20096;-76
2021/04/19 00:45:10;;;;;;;6.38;2.97;;;6.70;99.90;;;;;;5024957;28;20022;-76
2021/04/19 00:47:37;;;;;;;6.03;3.22;;;6.70;99.90;;;;;;5025177;28;20124;-76
2021/04/19 00:50:08;;;;;;;16.13;4.10;;;6.60;99.90;;;;;;5025092;28;20025;-76
2021/04/19 00:52:34;;;;;;;10.48;3.72;;;6.60;99.90;;;;;;5025373;28;20266;-76
2021/04/19 00:54:59;;;;;;;6.25;3.10;;;6.60;99.90;;;;;;5007527;28;20455;-76
2021/04/19 00:57:28;;;;;;;7.47;3.45;;;6.50;99.90;;;;;;5007637;28;20101;-76
2021/04/19 00:59:54;;;;;;;8.63;3.65;;;6.50;99.90;;;;;;5007403;28;20051;-76
2021/04/19 01:02:20;;;;;;;6.75;3.40;;;6.50;99.90;;;;;;5007574;28;20057;-76
2021/04/19 01:04:45;;;;;;;6.63;3.05;;;6.40;99.90;;;;;;5024873;28;20037;-76
2021/04/19 01:07:11;;;;;;;10.00;4.03;;;6.40;99.90;;;;;;5024694;28;20042;-76
2021/04/19 01:09:37;;;;;;;9.25;3.55;;;6.40;99.90;;;;;;5024870;28;20033;-76
2021/04/19 01:12:03;;;;;;;7.80;3.22;;;6.30;99.90;;;;;;5007526;28;20022;-76
2021/04/19 01:14:30;;;;;;;5.88;3.15;;;6.30;99.90;;;;;;5024902;28;20083;-75
2021/04/19 01:16:56;;;;;;;7.93;3.15;;;6.30;99.90;;;;;;5007213;28;20065;-76
2021/04/19 01:19:22;;;;;;;7.88;3.00;;;6.30;99.90;;;;;;5023428;28;20033;-76
2021/04/19 01:21:48;;;;;;;9.05;2.50;;;6.20;99.90;;;;;;5007324;28;20545;-76
2021/04/19 01:24:14;;;;;;;5.72;2.33;;;6.20;99.90;;;;;;5024837;28;20045;-76
2021/04/19 01:26:39;;;;;;;4.28;1.70;;;6.10;99.90;;;;;;5024869;28;20387;-76
2021/04/19 01:29:05;;;;;;;6.70;2.80;;;6.10;99.90;;;;;;5024882;28;20132;-77
2021/04/19 01:31:32;;;;;;;5.90;2.58;;;6.10;99.90;;;;;;5024838;28;20025;-76
2021/04/19 01:34:04;;;;;;;5.70;2.50;;;6.10;99.90;;;;;;5007035;28;20034;-76
2021/04/19 01:36:30;;;;;;;6.60;3.30;;;6.00;99.90;;;;;;5006976;28;20076;-76
2021/04/19 01:38:56;;;;;;;9.32;3.95;;;6.00;99.90;;;;;;5006908;28;20028;-76
2021/04/19 01:41:22;;;;;;;5.55;2.78;;;6.10;99.90;;;;;;5024782;28;20026;-76
2021/04/19 01:43:48;;;;;;;7.63;3.10;;;6.00;99.90;;;;;;5007062;28;20026;-75
2021/04/19 01:46:14;;;;;;;6.75;3.15;;;6.00;99.90;;;;;;5024687;28;20022;-76
2021/04/19 01:48:40;;;;;;;6.15;2.70;;;6.00;99.90;;;;;;5024498;28;20022;-76
2021/04/19 01:51:06;;;;;;;5.85;2.33;;;5.90;99.90;;;;;;5023114;28;20022;-76
2021/04/19 01:53:35;;;;;;;7.55;3.45;;;5.90;99.90;;;;;;5007007;28;20022;-76
2021/04/19 01:56:03;;;;;;;8.98;3.85;;;5.90;99.90;;;;;;5024827;28;20032;-76
2021/04/19 01:58:33;;;;;;;6.32;3.00;;;5.90;99.90;;;;;;5010397;28;20040;-76
2021/04/19 02:01:00;;;;;;;7.75;3.53;;;5.80;99.90;;;;;;5010335;28;20034;-76
2021/04/19 02:03:52;;;;;;;7.97;3.03;;;5.80;99.90;;;;;;5028070;28;20040;-76
2021/04/19 02:06:42;;;;;;;8.30;3.50;;;5.90;99.90;;;;;;4976522;28;20046;-76
2021/04/19 02:09:17;;;;;;;12.02;4.95;;;5.80;99.90;;;;;;4991376;28;20031;-76
2021/04/19 02:12:14;;;;;;;10.60;4.63;;;5.80;99.90;;;;;;4991567;28;20034;-76
2021/04/19 02:15:09;;;;;;;11.95;5.25;;;5.80;99.90;;;;;;4991459;28;20489;-76
2021/04/19 02:17:56;;;;;;;9.07;3.90;;;5.80;99.90;;;;;;4992689;28;20037;-76
2021/04/19 02:20:42;;;;;;;13.85;5.47;;;5.80;99.90;;;;;;4996459;28;20027;-76
2021/04/19 02:23:36;;;;;;;11.90;5.43;;;5.80;99.90;;;;;;5013575;28;20023;-76
2021/04/19 02:26:23;;;;;;;11.50;5.53;;;5.80;99.90;;;;;;5005541;28;20069;-76
2021/04/19 02:29:03;;;;;;;13.20;6.63;;;5.80;99.90;;;;;;4991138;28;20023;-76
2021/04/19 02:31:53;;;;;;;12.63;5.55;;;5.90;99.90;;;;;;4991482;28;20030;-76
2021/04/19 02:34:20;;;;;;;10.15;5.13;;;5.90;99.90;;;;;;5007706;28;20070;-76
2021/04/19 02:36:50;;;;;;;7.70;3.70;;;5.90;99.90;;;;;;5006975;28;20062;-76
2021/04/19 02:39:17;;;;;;;7.57;3.25;;;5.90;99.90;;;;;;5007079;28;20038;-76
2021/04/19 02:41:47;;;;;;;8.15;4.30;;;5.90;99.90;;;;;;5008508;28;20027;-76
2021/04/19 02:44:15;;;;;;;9.35;3.78;;;5.90;99.90;;;;;;5007297;28;20042;-76
2021/04/19 02:46:54;;;;;;;10.52;5.38;;;5.90;99.90;;;;;;4992771;28;20483;-76
2021/04/19 02:49:27;;;;;;;11.32;6.32;;;5.80;99.90;;;;;;5006827;28;20038;-76
2021/04/19 02:51:55;;;;;;;10.77;5.53;;;5.70;99.90;;;;;;5008224;28;20034;-76
2021/04/19 02:54:22;;;;;;;9.20;4.32;;;5.70;99.90;;;;;;4974512;28;20038;-76
2021/04/19 02:56:50;;;;;;;10.02;4.90;;;5.70;99.90;;;;;;5008157;28;20030;-76
2021/04/19 02:59:18;;;;;;;7.32;4.90;;;5.60;99.90;;;;;;5006731;28;20034;-76
2021/04/19 03:01:47;;;;;;;8.82;4.22;;;5.60;99.90;;;;;;5006733;28;20026;-76
2021/04/19 03:04:15;;;;;;;9.13;3.88;;;5.60;99.90;;;;;;5006893;28;20031;-76
2021/04/19 03:06:53;;;;;;;9.40;4.38;;;5.60;99.90;;;;;;5007252;28;20077;-76
2021/04/19 03:09:24;;;;;;;9.73;4.18;;;5.50;99.90;;;;;;5022740;28;20026;-76
2021/04/19 03:11:54;;;;;;;8.65;3.72;;;5.40;99.90;;;;;;5022875;28;20087;-76
2021/04/19 03:14:30;;;;;;;9.68;5.07;;;5.40;99.90;;;;;;5022594;28;20552;-76
2021/04/19 03:17:05;;;;;;;7.53;3.78;;;5.50;99.90;;;;;;5022634;28;20047;-76
2021/04/19 03:20:10;;;;;;;9.63;4.88;;;5.50;99.90;;;;;;5019346;28;20097;-76
2021/04/19 03:22:49;;;;;;;15.00;5.45;;;5.50;99.90;;;;;;5020993;28;20034;-76
2021/04/19 03:25:18;;;;;;;12.70;5.53;;;5.50;99.90;;;;;;5022512;28;20390;-76
2021/04/19 03:27:49;;;;;;;10.07;5.63;;;5.50;99.90;;;;;;5022285;28;20031;-76
2021/04/19 03:30:17;;;;;;;14.88;5.60;;;5.50;99.90;;;;;;5022329;28;20394;-76
2021/04/19 03:32:53;;;;;;;9.27;5.18;;;5.50;99.90;;;;;;5007387;28;20030;-76
2021/04/19 03:35:31;;;;;;;12.57;5.38;;;5.60;99.90;;;;;;5022144;28;20414;-76
2021/04/19 03:38:00;;;;;;;12.35;5.10;;;5.60;99.90;;;;;;5022142;28;20577;-76
2021/04/19 03:40:32;;;;;;;9.77;5.30;;;5.60;99.90;;;;;;5007140;28;20030;-76
2021/04/19 03:43:05;;;;;;;6.40;3.63;;;5.60;99.90;;;;;;5022230;28;20041;-76
2021/04/19 03:45:38;;;;;;;9.55;5.93;;;5.60;99.90;;;;;;5005716;28;20038;-76
2021/04/19 03:48:27;;;;;;;14.10;5.47;;;5.60;99.90;;;;;;4995879;28;20034;-76
2021/04/19 03:51:08;;;;;;;9.55;5.20;;;5.60;99.90;;;;;;5021967;28;20031;-76
2021/04/19 03:53:42;;;;;;;8.13;4.50;;;5.60;99.90;;;;;;5022163;28;20022;-76
2021/04/19 03:56:10;;;;;;;8.38;3.53;;;5.70;99.90;;;;;;5021853;28;20045;-76
2021/04/19 03:58:45;;;;;;;10.23;5.05;;;5.70;99.90;;;;;;5022001;28;20133;-76
2021/04/19 04:01:13;;;;;;;9.35;4.75;;;5.70;99.90;;;;;;5021703;28;20065;-76
2021/04/19 04:03:50;;;;;;;9.23;5.45;;;5.70;99.90;;;;;;5006810;28;20102;-76
2021/04/19 04:06:23;;;;;;;9.90;5.30;;;5.70;99.90;;;;;;5025900;28;20046;-76
2021/04/19 04:08:51;;;;;;;8.60;4.80;;;5.70;99.90;;;;;;5008835;28;20093;-76
2021/04/19 04:11:17;;;;;;;9.02;4.35;;;5.70;99.90;;;;;;5026327;28;20528;-76
2021/04/19 04:13:47;;;;;;;11.98;4.85;;;5.70;99.90;;;;;;5008825;28;20026;-76
2021/04/19 04:16:13;;;;;;;11.63;5.88;;;5.70;99.90;;;;;;5008868;28;20038;-76
2021/04/19 04:18:54;;;;;;;12.27;6.10;;;5.80;99.90;;;;;;5007827;28;20042;-76
2021/04/19 04:21:21;;;;;;;8.73;5.30;;;5.80;99.90;;;;;;5008457;28;20021;-77
2021/04/19 04:23:51;;;;;;;8.20;5.25;;;5.80;99.90;;;;;;5008470;28;20041;-77
2021/04/19 04:26:19;;;;;;;10.57;5.65;;;5.80;99.90;;;;;;5008503;28;20030;-76
2021/04/19 04:28:45;;;;;;;15.52;7.30;;;5.80;99.90;;;;;;5008401;28;20034;-77
2021/04/19 04:31:16;;;;;;;11.10;6.97;;;5.80;99.90;;;;;;5008343;28;20026;-76
2021/04/19 04:33:47;;;;;;;10.90;6.10;;;5.80;99.90;;;;;;5008360;28;20030;-76
2021/04/19 04:36:18;;;;;;;11.90;6.75;;;5.80;99.90;;;;;;5025800;28;20041;-76
2021/04/19 04:39:06;;;;;;;11.57;6.18;;;5.90;99.90;;;;;;5123539;27;20356;-78
2021/04/19 04:41:39;;;;;;;9.18;5.53;;;5.90;99.90;;;;;;5122385;28;20027;-78
2021/04/19 04:44:07;;;;;;;12.48;6.85;;;5.90;99.90;;;;;;5122458;28;20536;-78
2021/04/19 04:46:55;;;;;;;12.05;6.45;;;5.90;99.90;;;;;;5123511;28;20027;-79
2021/04/19 04:49:24;;;;;;;10.52;6.03;;;5.90;99.90;;;;;;5123460;28;20035;-79
2021/04/19 04:51:51;;;;;;;12.45;6.38;;;6.00;99.90;;;;;;5122290;28;20028;-78
2021/04/19 04:54:20;;;;;;;13.13;7.10;;;5.90;99.90;;;;;;5122063;28;20049;-78
2021/04/19 04:56:52;;;;;;;14.68;6.25;;;6.00;99.90;;;;;;5121918;28;20032;-78
2021/04/19 04:59:21;;;;;;;13.05;6.57;;;6.00;99.90;;;;;;5104886;28;20028;-78
2021/04/19 05:01:47;;;;;;;10.60;6.22;;;6.00;99.90;;;;;;5123108;28;20058;-78
2021/04/19 05:04:14;;;;;;;15.52;6.43;;;6.00;99.90;;;;;;5121655;28;20522;-78
2021/04/19 05:06:41;;;;;;;9.95;6.65;;;5.90;99.90;;;;;;5062619;23;20050;-79
2021/04/19 05:09:11;;;;;;;12.95;5.78;;;6.00;99.90;;;;;;5003285;28;20509;-77
2021/04/19 05:11:42;;;;;;;15.55;6.65;;;6.00;99.90;;;;;;5003026;28;20038;-78
2021/04/19 05:14:07;;;;;;;13.57;7.07;;;5.90;99.90;;;;;;5018310;28;20037;-78
2021/04/19 05:16:33;;;;;;;10.57;5.97;;;5.90;99.90;;;;;;5018331;28;20425;-79
2021/04/19 05:19:04;;;;;;;14.20;7.82;;;5.90;99.90;;;;;;5021460;28;20109;-78
2021/04/19 05:21:30;;;;;;;13.57;7.38;;;5.90;99.90;;;;;;5037988;28;20425;-79
2021/04/19 05:23:56;;;;;;;11.60;7.15;;;5.90;99.90;;;;;;5037789;28;20034;-79
2021/04/19 05:26:24;;;;;;;12.48;7.15;;;5.80;99.90;;;;;;5022362;28;20037;-78
2021/04/19 05:28:51;;;;;;;17.80;9.77;;;5.80;99.90;;;;;;5022629;28;20300;-79
2021/04/19 05:31:17;;;;;;;14.18;9.15;;;5.80;99.90;;;;;;5005050;28;20049;-79
2021/04/19 05:33:43;;;;;;;15.05;8.77;;;5.80;99.90;;;;;;5037925;28;20026;-79
2021/04/19 05:36:10;;;;;;;19.92;8.50;;;5.90;99.90;;;;;;5004988;28;20030;-79
2021/04/19 05:38:37;;;;;;;13.95;7.88;;;5.90;99.90;;;;;;5037561;28;20058;-79
2021/04/19 05:41:04;;;;;;;13.27;6.85;;;5.90;99.90;;;;;;5020795;28;20448;-79
2021/04/19 05:43:30;;;;;;;12.82;7.80;;;5.90;99.90;;;;;;5036701;28;20406;-79
2021/04/19 05:45:58;;;;;;;11.98;6.07;;;5.90;99.90;;;;;;5036439;28;20022;-79
2021/04/19 05:48:24;;;;;;;9.40;5.35;;;6.00;99.90;;;;;;5034453;28;20044;-79
2021/04/19 05:50:57;;;;;;;10.70;6.20;;;6.00;99.90;;;;;;5006706;28;20054;-79
2021/04/19 05:53:25;;;;;;;14.65;9.15;;;6.10;99.90;;;;;;5023316;28;20026;-79
2021/04/19 05:55:55;;;;;;;21.60;13.57;;;6.10;99.90;;;;;;5006383;28;20026;-79
2021/04/19 05:58:33;;;;;;;18.23;11.40;;;6.10;99.90;;;;;;5006893;28;20049;-80
2021/04/19 06:01:10;;;;;;;15.95;9.48;;;6.10;99.90;;;;;;5006924;28;20053;-79
2021/04/19 06:03:59;;;;;;;20.42;12.65;;;6.10;99.90;;;;;;5023095;28;20084;-79
2021/04/19 06:06:40;;;;;;;16.15;9.98;;;6.10;99.90;;;;;;5016135;28;20047;-79
2021/04/19 06:09:38;;;;;;;18.42;12.52;;;6.20;99.90;;;;;;5002932;28;20085;-79
2021/04/19 06:12:35;;;;;;;16.15;10.57;;;6.20;99.90;;;;;;5003006;28;20097;-79
2021/04/19 06:15:09;;;;;;;16.98;10.00;;;6.20;99.90;;;;;;5003282;28;20113;-79
2021/04/19 06:17:36;;;;;;;15.35;9.13;;;6.30;99.90;;;;;;5003020;28;20058;-79
2021/04/19 06:20:03;;;;;;;16.85;9.15;;;6.30;99.90;;;;;;5002995;28;20089;-79
2021/04/19 06:22:29;;;;;;;15.23;9.93;;;6.40;99.90;;;;;;4987946;28;20027;-80
2021/04/19 06:24:55;;;;;;;15.68;9.23;;;6.40;99.90;;;;;;5004059;28;20031;-79
2021/04/19 06:27:22;;;;;;;17.15;11.65;;;6.40;99.90;;;;;;5003138;28;20062;-80
2021/04/19 06:29:48;;;;;;;15.73;10.23;;;6.40;99.90;;;;;;5003035;28;20031;-79
2021/04/19 06:32:15;;;;;;;21.05;12.50;;;6.50;99.90;;;;;;4988367;28;20037;-80
2021/04/19 06:34:41;;;;;;;15.75;10.10;;;6.50;99.90;;;;;;4988121;28;20065;-80
2021/04/19 06:37:07;;;;;;;12.93;7.63;;;6.50;99.90;;;;;;5002687;28;20082;-80
2021/04/19 06:39:34;;;;;;;22.50;12.23;;;6.50;99.90;;;;;;5002661;28;20030;-80
2021/04/19 06:42:02;;;;;;;24.05;13.65;;;6.50;99.90;;;;;;5002307;28;20065;-80
2021/04/19 06:44:29;;;;;;;21.58;12.77;;;6.60;99.90;;;;;;5002648;28;20035;-80
2021/04/19 06:46:55;;;;;;;19.63;11.50;;;6.70;99.90;;;;;;5002692;28;20035;-79
2021/04/19 06:49:21;;;;;;;13.40;8.18;;;6.80;99.90;;;;;;5002555;28;20041;-80
2021/04/19 06:51:48;;;;;;;21.50;12.23;;;6.90;99.90;;;;;;4987693;28;20475;-80
2021/04/19 06:54:14;;;;;;;21.95;14.52;;;6.90;99.90;;;;;;5002664;28;20038;-80
2021/04/19 06:56:42;;;;;;;22.15;14.43;;;6.90;99.90;;;;;;4985413;28;20065;-80
2021/04/19 06:59:15;;;;;;;20.33;12.52;;;7.00;99.90;;;;;;5002279;28;20031;-79
2021/04/19 07:01:42;;;;;;;22.80;11.77;;;7.10;99.90;;;;;;4986634;28;20066;-80
2021/04/19 07:04:11;;;;;;;21.08;12.45;;;7.30;99.90;;;;;;4987327;28;20094;-80
2021/04/19 07:06:38;;;;;;;15.95;11.20;;;7.40;99.90;;;;;;5011102;28;20057;-80
2021/04/19 07:09:26;;;;;;;15.02;10.65;;;7.30;99.90;;;;;;5021722;28;20054;-80
2021/04/19 07:12:02;;;;;;;17.75;10.23;;;7.40;99.90;;;;;;5021476;28;20034;-80
2021/04/19 07:14:31;;;;;;;12.40;7.25;;;7.40;99.90;;;;;;5006754;28;20026;-80
2021/04/19 07:16:57;;;;;;;17.85;12.02;;;7.50;99.90;;;;;;5021648;28;20049;-80
2021/04/19 07:19:23;;;;;;;21.23;12.15;;;7.60;99.90;;;;;;5021635;28;20034;-80
2021/04/19 07:21:49;;;;;;;14.25;9.70;;;7.60;99.90;;;;;;5021734;28;20034;-80
2021/04/19 07:24:16;;;;;;;27.15;16.10;;;7.80;99.90;;;;;;5021578;28;20038;-80
2021/04/19 07:26:43;;;;;;;21.48;13.80;;;7.80;99.90;;;;;;5004707;28;20034;-80
2021/04/19 07:29:10;;;;;;;21.98;13.65;;;7.90;99.90;;;;;;5021356;28;20035;-79
2021/04/19 07:31:49;;;;;;;23.63;12.93;;;7.80;99.90;;;;;;5006505;28;20042;-80
2021/04/19 07:34:20;;;;;;;18.17;12.52;;;8.00;99.90;;;;;;5005163;28;20064;-79
2021/04/19 07:36:52;;;;;;;18.85;12.52;;;8.00;99.90;;;;;;4988574;28;20129;-80
2021/04/19 07:39:20;;;;;;;16.88;10.68;;;8.20;99.90;;;;;;5021294;28;20039;-80
2021/04/19 07:42:07;;;;;;;19.45;11.25;;;8.20;99.90;;;;;;5005759;28;20046;-79
2021/04/19 07:44:38;;;;;;;22.48;13.90;;;8.30;99.90;;;;;;5006096;28;20030;-79
2021/04/19 07:47:20;;;;;;;21.73;13.35;;;8.20;99.90;;;;;;5005024;28;20044;-79
2021/04/19 07:50:06;;;;;;;15.68;10.50;;;8.40;99.90;;;;;;5004585;28;20030;-79
2021/04/19 07:52:36;;;;;;;15.43;9.82;;;8.50;99.90;;;;;;5006247;28;20042;-80
2021/04/19 07:55:13;;;;;;;15.55;9.93;;;8.60;99.90;;;;;;5005543;28;20022;-80
2021/04/19 07:57:40;;;;;;;14.93;9.75;;;8.70;99.90;;;;;;5020800;28;20046;-79
2021/04/19 08:00:08;;;;;;;10.68;6.30;;;8.90;99.90;;;;;;5020886;28;20035;-79
2021/04/19 08:02:38;;;;;;;21.33;14.95;;;9.00;99.90;;;;;;5004905;28;20121;-79
2021/04/19 08:05:37;;;;;;;19.33;11.68;;;9.00;99.90;;;;;;5001108;28;20094;-80
2021/04/19 08:08:03;;;;;;;17.77;10.55;;;9.20;99.90;;;;;;4962558;28;20061;-79
2021/04/19 08:10:30;;;;;;;17.17;9.90;;;9.30;99.90;;;;;;4963938;29;20032;-80
2021/04/19 08:13:07;;;;;;;21.77;13.98;;;9.20;99.90;;;;;;4964128;28;20102;-80
2021/04/19 08:15:35;;;;;;;17.17;11.75;;;9.10;99.90;;;;;;4964362;29;20073;-79
2021/04/19 08:18:06;;;;;;;15.27;10.63;;;9.10;99.90;;;;;;4948051;29;20043;-79
2021/04/19 08:20:32;;;;;;;19.73;13.60;;;9.30;99.90;;;;;;4947868;29;20038;-79
2021/04/19 08:23:12;;;;;;;17.98;11.38;;;9.20;99.90;;;;;;4919559;28;20053;-77
2021/04/19 08:25:44;;;;;;;16.95;11.50;;;9.20;99.90;;;;;;4947782;29;20072;-78
2021/04/19 08:28:18;;;;;;;17.15;11.40;;;9.20;99.90;;;;;;4964015;29;20105;-78
2021/04/19 08:30:47;;;;;;;16.85;11.52;;;9.10;99.90;;;;;;4948096;29;20063;-77
2021/04/19 08:33:13;;;;;;;16.83;10.82;;;9.20;99.90;;;;;;4964251;29;20044;-78
2021/04/19 08:35:40;;;;;;;14.55;9.45;;;9.30;99.90;;;;;;4963881;29;20047;-78
2021/04/19 08:38:06;;;;;;;15.05;9.68;;;9.30;99.90;;;;;;4947808;29;20055;-77
2021/04/19 08:40:35;;;;;;;21.90;14.30;;;9.20;99.90;;;;;;4963457;29;20035;-77
2021/04/19 08:43:03;;;;;;;17.05;11.48;;;9.10;99.90;;;;;;4964112;29;20067;-77
2021/04/19 08:45:29;;;;;;;22.92;14.93;;;9.20;99.90;;;;;;4965709;29;20035;-77
2021/04/19 08:47:55;;;;;;;17.92;12.30;;;9.20;99.90;;;;;;4965201;28;20043;-77
2021/04/19 08:50:25;;;;;;;17.73;11.90;;;9.40;99.90;;;;;;4965018;28;20031;-77
2021/04/19 08:52:52;;;;;;;15.35;11.27;;;9.60;99.90;;;;;;4966547;28;20036;-77
2021/04/19 08:55:18;;;;;;;14.68;9.93;;;9.80;99.90;;;;;;4964744;28;20046;-77
2021/04/19 08:57:45;;;;;;;13.35;10.20;;;9.90;99.90;;;;;;4964748;28;20043;-77
2021/04/19 09:00:14;;;;;;;12.90;9.98;;;10.00;99.90;;;;;;4964913;28;20031;-77
2021/04/19 09:02:40;;;;;;;12.63;10.30;;;10.00;99.90;;;;;;4965265;29;20039;-77
2021/04/19 09:05:26;;;;;;;12.77;10.13;;;10.10;99.90;;;;;;4957738;28;20039;-76
2021/04/19 09:08:05;;;;;;;14.20;10.68;;;10.40;99.90;;;;;;4976976;28;20089;-77
2021/04/19 09:11:09;;;;;;;13.63;10.60;;;10.60;99.90;;;;;;4982762;28;20073;-77
2021/04/19 09:13:42;;;;;;;11.32;9.00;;;11.00;99.90;;;;;;4983037;28;20045;-78
2021/04/19 09:16:22;;;;;;;14.20;10.90;;;11.10;99.90;;;;;;4983010;28;20043;-78
2021/04/19 09:18:53;;;;;;;12.97;9.50;;;11.10;99.90;;;;;;4966915;28;20055;-77
2021/04/19 09:21:38;;;;;;;8.07;6.68;;;11.20;99.90;;;;;;4950930;28;20282;-78
2021/04/19 09:24:15;;;;;;;10.40;8.00;;;11.50;99.90;;;;;;4983736;28;20043;-78
2021/04/19 09:26:52;;;;;;;11.30;7.93;;;11.80;99.90;;;;;;4970398;28;20038;-77
2021/04/19 09:29:30;;;;;;;9.85;7.28;;;12.10;99.90;;;;;;4970408;28;20039;-78
2021/04/19 09:32:17;;;;;;;9.23;7.05;;;11.90;99.90;;;;;;4986499;28;20054;-78
2021/04/19 09:34:47;;;;;;;8.93;7.70;;;11.90;99.90;;;;;;4954382;28;20441;-80
2021/04/19 09:37:14;;;;;;;10.00;7.97;;;11.90;99.90;;;;;;4986345;28;20039;-78
2021/04/19 09:39:58;;;;;;;6.80;5.60;;;12.30;99.90;;;;;;4970146;28;20225;-78
2021/04/19 09:42:48;;;;;;;7.97;6.35;;;12.50;99.90;;;;;;4970550;28;20646;-78
2021/04/19 09:45:34;;;;;;;8.00;5.75;;;12.40;99.90;;;;;;4972264;28;20050;-77
2021/04/19 09:48:00;;;;;;;8.48;6.50;;;12.10;99.90;;;;;;4964983;29;20039;-78
2021/04/19 09:50:25;;;;;;;8.18;6.88;;;11.90;99.90;;;;;;4948800;28;20123;-80
2021/04/19 09:52:52;;;;;;;8.02;6.43;;;11.90;99.90;;;;;;4933303;29;20044;-78
2021/04/19 09:55:19;;;;;;;7.45;6.35;;;11.90;99.90;;;;;;4948502;29;20032;-78
2021/04/19 09:57:45;;;;;;;9.75;7.65;;;11.80;99.90;;;;;;4964666;29;20134;-78
2021/04/19 10:00:12;;;;;;;8.70;7.35;;;11.80;99.90;;;;;;4948778;29;20388;-78
2021/04/19 10:02:40;;;;;;;11.73;7.57;;;11.70;99.90;;;;;;4948802;28;20039;-78
2021/04/19 10:05:26;;;;;;;8.27;7.05;;;11.80;99.90;;;;;;4968046;28;20040;-77
2021/04/19 10:07:52;;;;;;;7.72;6.10;;;11.90;99.90;;;;;;4969357;28;20511;-77
2021/04/19 10:10:20;;;;;;;9.07;7.72;;;12.10;99.90;;;;;;4969348;28;20583;-78
2021/04/19 10:12:47;;;;;;;7.47;6.38;;;12.40;99.90;;;;;;4985721;28;20072;-78
2021/04/19 10:15:21;;;;;;;6.22;5.60;;;12.60;99.90;;;;;;4969518;28;20098;-78
2021/04/19 10:17:48;;;;;;;8.65;6.95;;;12.60;99.90;;;;;;4969534;28;20050;-78
2021/04/19 10:20:25;;;;;;;9.80;7.68;;;12.50;99.90;;;;;;4969402;28;20035;-78
2021/04/19 10:23:13;;;;;;;7.57;6.35;;;12.60;99.90;;;;;;4969257;28;20035;-78
2021/04/19 10:25:51;;;;;;;6.78;5.95;;;12.60;99.90;;;;;;4969364;28;20043;-78
2021/04/19 10:28:27;;;;;;;7.07;6.32;;;12.60;99.90;;;;;;4985254;28;20042;-78
2021/04/19 10:31:05;;;;;;;5.88;4.80;;;12.50;99.90;;;;;;4968991;28;20038;-78
2021/04/19 10:33:31;;;;;;;5.10;4.30;;;12.60;99.90;;;;;;4985576;28;20039;-78
2021/04/19 10:35:57;;;;;;;4.63;4.07;;;12.60;99.90;;;;;;4985003;28;20102;-78
2021/04/19 10:38:36;;;;;;;5.53;4.60;;;12.60;99.90;;;;;;4985053;28;20430;-78
2021/04/19 10:41:02;;;;;;;5.20;4.65;;;12.60;99.90;;;;;;4985598;28;20045;-78
2021/04/19 10:43:28;;;;;;;6.40;4.80;;;12.90;99.90;;;;;;4985390;28;20035;-78
2021/04/19 10:45:54;;;;;;;6.38;4.25;;;13.10;99.90;;;;;;4969972;28;20062;-77
2021/04/19 10:48:25;;;;;;;6.50;4.97;;;13.40;99.90;;;;;;4983138;28;20027;-77
2021/04/19 10:50:54;;;;;;;5.90;4.93;;;13.60;99.90;;;;;;4983047;28;20031;-78
2021/04/19 10:53:33;;;;;;;4.93;4.35;;;13.80;99.90;;;;;;4966673;28;20036;-78
2021/04/19 10:56:00;;;;;;;4.32;3.90;;;13.80;99.90;;;;;;4968335;28;20035;-78
2021/04/19 10:58:31;;;;;;;4.57;4.05;;;13.90;99.90;;;;;;4982783;28;20046;-78
2021/04/19 11:00:58;;;;;;;4.22;3.70;;;14.20;99.90;;;;;;4967950;28;20061;-78
2021/04/19 11:03:24;;;;;;;4.53;3.83;;;14.50;99.90;;;;;;4983434;28;20035;-78
2021/04/19 11:05:50;;;;;;;3.38;2.95;;;14.40;99.90;;;;;;4979265;28;20110;-78
2021/04/19 11:08:16;;;;;;;4.45;3.67;;;14.10;99.90;;;;;;4984048;28;20051;-78
2021/04/19 11:10:41;;;;;;;5.35;4.15;;;14.00;99.90;;;;;;4987450;28;20031;-78
2021/04/19 11:13:09;;;;;;;4.88;4.13;;;14.10;99.90;;;;;;4969693;28;20039;-78
2021/04/19 11:15:36;;;;;;;5.20;3.80;;;14.70;99.90;;;;;;4987312;28;20034;-78
2021/04/19 11:18:41;;;;;;;4.40;3.72;;;14.60;99.90;;;;;;4985604;28;20055;-78
2021/04/19 11:21:06;;;;;;;3.60;3.00;;;14.60;99.90;;;;;;4934323;28;20042;-78
2021/04/19 11:23:35;;;;;;;4.32;3.17;;;14.50;99.90;;;;;;4985470;28;20094;-78
2021/04/19 11:26:08;;;;;;;3.50;3.17;;;14.70;99.90;;;;;;4987109;28;20098;-78
2021/04/19 11:28:42;;;;;;;3.38;2.45;;;14.80;99.90;;;;;;4985626;28;20018;-78
2021/04/19 11:31:16;;;;;;;4.45;3.53;;;14.40;99.90;;;;;;4985652;28;20045;-78
2021/04/19 11:33:42;;;;;;;4.28;3.40;;;14.30;99.90;;;;;;4986979;28;20039;-78
2021/04/19 11:36:09;;;;;;;3.85;3.17;;;14.20;99.90;;;;;;4985400;28;20095;-78
2021/04/19 11:38:40;;;;;;;5.25;3.60;;;14.20;99.90;;;;;;4985083;28;20043;-78
2021/04/19 11:41:11;;;;;;;4.60;4.07;;;14.10;99.90;;;;;;4967822;28;20089;-78
2021/04/19 11:43:45;;;;;;;4.18;3.22;;;14.10;99.90;;;;;;5003675;28;20038;-79
2021/04/19 11:46:14;;;;;;;3.30;2.60;;;14.20;99.90;;;;;;5003118;28;20030;-79
2021/04/19 11:48:42;;;;;;;4.60;3.20;;;14.10;99.90;;;;;;5014855;28;20511;-78
2021/04/19 11:51:09;;;;;;;4.93;3.40;;;13.90;99.90;;;;;;4995234;28;20050;-79
2021/04/19 11:53:36;;;;;;;5.30;3.97;;;13.70;99.90;;;;;;5023861;28;20044;-79
2021/04/19 11:56:03;;;;;;;5.07;3.92;;;13.70;99.90;;;;;;5025573;28;20109;-80
2021/04/19 11:58:29;;;;;;;4.53;3.95;;;13.40;99.90;;;;;;5007556;28;20096;-78
2021/04/19 12:00:55;;;;;;;4.47;3.92;;;13.40;99.90;;;;;;4991192;28;20026;-78
2021/04/19 12:03:22;;;;;;;4.85;4.35;;;13.40;99.90;;;;;;5023801;28;20025;-78
2021/04/19 12:05:48;;;;;;;4.63;4.07;;;13.40;99.90;;;;;;4994844;28;20034;-79
2021/04/19 12:08:14;;;;;;;5.57;4.68;;;13.40;99.90;;;;;;5003715;28;20057;-78
2021/04/19 12:10:40;;;;;;;3.83;3.10;;;13.40;99.90;;;;;;5005778;28;20066;-78
2021/04/19 12:13:06;;;;;;;4.70;4.13;;;13.50;99.90;;;;;;5004434;28;20038;-79
2021/04/19 12:15:32;;;;;;;6.03;3.97;;;13.50;99.90;;;;;;5004389;28;20034;-78
2021/04/19 12:17:59;;;;;;;4.82;3.63;;;13.50;99.90;;;;;;4987832;28;20113;-78
2021/04/19 12:20:26;;;;;;;4.82;4.32;;;13.40;99.90;;;;;;5005612;28;20093;-78
2021/04/19 12:22:52;;;;;;;5.03;4.25;;;13.60;99.90;;;;;;5005544;28;20225;-78
2021/04/19 12:25:18;;;;;;;4.95;3.58;;;13.60;99.90;;;;;;5005565;28;20262;-78
2021/04/19 12:27:43;;;;;;;4.50;3.97;;;13.70;99.90;;;;;;5005396;28;20449;-78
2021/04/19 12:30:10;;;;;;;5.93;4.93;;;13.80;99.90;;;;;;5004191;28;20037;-78
2021/04/19 12:32:36;;;;;;;6.10;5.43;;;13.90;99.90;;;;;;4987856;28;20065;-78
2021/04/19 12:35:02;;;;;;;6.93;4.57;;;13.90;99.90;;;;;;5004166;28;20573;-78
2021/04/19 12:37:28;;;;;;;6.30;5.00;;;14.00;99.90;;;;;;5004013;28;20050;-78
2021/04/19 12:39:53;;;;;;;6.25;5.07;;;14.00;99.90;;;;;;4988141;28;20092;-78
2021/04/19 12:42:19;;;;;;;6.88;5.30;;;14.10;99.90;;;;;;5005856;28;20026;-78
2021/04/19 12:44:45;;;;;;;8.00;5.32;;;14.20;99.90;;;;;;5004059;28;20173;-77
2021/04/19 12:47:11;;;;;;;6.30;5.13;;;14.20;99.90;;;;;;5005472;28;20038;-78
2021/04/19 12:49:38;;;;;;;6.22;5.28;;;14.10;99.90;;;;;;5003978;28;20086;-77
2021/04/19 12:52:04;;;;;;;6.78;4.88;;;14.20;99.90;;;;;;5004149;28;20545;-77
2021/04/19 12:54:29;;;;;;;5.32;4.70;;;14.30;99.90;;;;;;5004196;28;20061;-77
2021/04/19 12:56:55;;;;;;;5.32;4.53;;;14.40;99.90;;;;;;5004173;28;20054;-77
2021/04/19 12:59:21;;;;;;;4.65;3.50;;;14.60;99.90;;;;;;5005426;28;20031;-77
2021/04/19 13:01:47;;;;;;;4.63;3.78;;;14.70;99.90;;;;;;5009367;28;20026;-78
2021/04/19 13:04:16;;;;;;;4.43;3.83;;;14.80;99.90;;;;;;5009183;28;20038;-77
2021/04/19 13:06:42;;;;;;;5.13;4.03;;;14.70;99.90;;;;;;5023179;28;20046;-78